CST,Max TemperatureF,Mean TemperatureF,Min TemperatureF,Max Dew PointF,MeanDew PointF,Min DewpointF,Max Humidity, Mean Humidity, Min Humidity, Max Sea Level PressureIn, Mean Sea Level PressureIn, Min Sea Level PressureIn, Max VisibilityMiles, Mean VisibilityMiles, Min VisibilityMiles, Max Wind SpeedMPH, Mean Wind SpeedMPH, Max Gust SpeedMPH,PrecipitationIn, CloudCover, Events, WindDirDegrees
2012-12-1,84,76,67,69,67,62,100,80,49,30.11,30.05,29.98,10,9,5,13,7,18,0.00,4,,145
2012-12-2,84,77,70,69,66,60,96,73,45,30.12,30.05,29.99,10,10,10,13,8,21,0.00,5,,144
2012-12-3,83,75,67,68,65,62,99,76,47,30.04,29.98,29.91,10,10,7,10,6,17,0.00,3,,149
2012-12-4,84,74,65,69,65,61,100,76,45,30.16,30.05,29.98,10,9,5,8,4,,0.00,2,,85
2012-12-5,77,62,47,64,46,37,90,55,25,30.26,30.14,30.04,10,10,2,10,5,16,0.00,0,,343
2012-12-6,80,63,46,59,52,40,100,69,41,30.03,29.92,29.81,10,9,0,13,3,17,0.00,0,Fog,137
2012-12-7,84,74,65,67,64,60,99,76,44,29.86,29.79,29.71,10,9,7,13,7,20,0.00,3,,142
2012-12-8,79,72,64,69,67,61,100,85,59,29.89,29.82,29.77,10,7,1,8,3,,0.00,4,,134
2012-12-9,80,72,61,70,67,61,99,82,60,29.89,29.81,29.76,7,5,1,10,6,,0.00,3,,151
2012-12-10,64,55,46,64,35,21,100,50,23,30.15,30.02,29.79,10,8,1,21,8,32,0.00,3,,336
2012-12-11,56,48,39,29,24,19,64,40,26,30.23,30.13,30.07,10,10,10,8,3,,0.00,5,,71
2012-12-12,69,50,30,40,29,22,82,49,23,30.31,30.23,30.18,10,10,10,10,1,,0.00,0,,110
2012-12-13,67,57,47,60,50,42,86,76,66,30.24,30.17,30.10,10,10,7,14,4,21,0.00,6,,109
2012-12-14,76,70,63,68,65,60,100,87,71,30.09,29.97,29.85,10,9,5,17,7,24,0.04,5,Rain,140
2012-12-15,74,68,61,68,65,62,100,90,72,29.95,29.87,29.82,10,7,2,8,4,,0.00,3,,316
2012-12-16,80,70,59,63,59,53,100,76,50,29.89,29.82,29.75,10,8,0,15,4,20,0.00,2,Fog,315
2012-12-17,78,62,46,54,44,34,85,58,21,30.04,29.95,29.87,10,10,10,10,4,,0.00,0,,318
2012-12-18,88,67,46,67,49,38,90,54,22,29.94,29.85,29.74,10,10,10,15,6,23,0.00,0,,145
2012-12-19,87,76,64,68,64,55,96,74,35,29.79,29.73,29.65,10,8,5,17,9,23,0.00,3,,156
2012-12-20,72,58,43,66,19,13,98,24,16,30.50,30.33,29.81,10,9,4,29,14,40,0.00,1,,324
2012-12-21,65,48,30,38,17,9,68,34,12,30.54,30.43,30.32,10,10,10,10,3,17,0.00,0,,111
2012-12-22,75,58,40,58,46,33,82,65,47,30.32,30.21,30.07,10,10,10,16,3,26,0.00,5,,137
2012-12-23,78,63,48,57,52,48,100,66,37,30.05,29.97,29.90,10,10,0,8,3,,0.00,0,Fog,169
2012-12-24,82,69,56,64,55,52,93,69,37,29.95,29.84,29.67,10,10,10,12,3,16,0.00,0,,124
2012-12-25,80,66,51,64,44,22,100,55,16,30.15,29.78,29.60,10,9,0,22,8,32,0.00,0,Fog,351
2012-12-26,54,44,35,28,21,17,60,41,30,30.30,30.17,30.09,10,10,10,12,6,16,0.00,0,,337
2012-12-27,64,47,30,45,35,24,79,64,46,30.09,29.91,29.78,10,10,10,7,2,,0.00,3,,120
2012-12-28,71,58,44,44,35,24,87,53,19,30.16,29.93,29.76,10,10,10,20,5,25,0.00,1,,334
2012-12-29,56,47,38,28,23,18,65,37,22,30.48,30.38,30.17,10,10,10,10,4,,0.00,0,,45
2012-12-30,57,50,42,36,29,20,58,45,35,30.40,30.27,30.11,10,10,10,7,3,,0.00,5,,44
2012-12-31,65,58,51,56,43,36,97,60,50,30.11,30.00,29.87,10,10,10,12,1,,0.00,5,Rain,268